l'Alcora, Spain
Current Conditions -  °F | °C
As of 4:00 AM on Wednesday 22 Oct 2014 (Local Time) from LEBT Reporting Station
Clear Clear  
Wind Chill: 77°   Ceiling: Unl
Heat Index: 78°   Visibility: 6mi
Dew Point: 48°   Wind: 9mph
Humidity: 36%   Direction: 340°NNW
Pressure: 30.18"   Gusts: 22mph
Location:  40.07°N, 0.2°W
Report Text: LEBT 220200Z AUTO 34008G19KT 280V040 CAVOK 25/09 Q1022
Loading
Personal Weather Stations






























Interactive Weather Map
Tropical Storm Tracking
New forecast layout! Learn more

10-Day Weather Forecast

Advertisements
Track Severe Weather on mobile